Time;durP1;ratioP1;P1;durP2;ratioP2;P2;SDS_P1;SDS_P2;PMS_P1;PMS_P2;Temp;Humidity;BMP_temperature;BMP_pressure;BME280_temperature;BME280_humidity;BME280_pressure;Samples;Min_cycle;Max_cycle;Signal;HPM_P1;HPM_P2
2021/04/23 00:01:35;;;;;;;13.02;5.78;;;6.10;99.90;;;;;;5045689;28;20057;-83
2021/04/23 00:04:05;;;;;;;19.23;7.65;;;6.10;99.90;;;;;;5048429;28;20045;-80
2021/04/23 00:06:42;;;;;;;18.13;7.82;;;6.10;99.90;;;;;;5048539;28;20063;-80
2021/04/23 00:09:22;;;;;;;15.82;6.25;;;6.10;99.90;;;;;;5050025;28;20412;-83
2021/04/23 00:11:56;;;;;;;21.80;6.45;;;6.00;99.90;;;;;;5046087;28;20604;-81
2021/04/23 00:14:39;;;;;;;20.55;7.00;;;6.00;99.90;;;;;;5032055;28;20049;-82
2021/04/23 00:17:08;;;;;;;14.48;5.78;;;7.50;99.90;;;;;;5030729;28;20060;-84
2021/04/23 00:19:36;;;;;;;21.75;6.32;;;6.10;99.90;;;;;;5048119;28;20249;-81
2021/04/23 00:22:07;;;;;;;15.57;6.97;;;5.90;99.90;;;;;;5051356;28;20060;-83
2021/04/23 00:24:34;;;;;;;22.95;6.13;;;5.90;99.90;;;;;;5063648;28;20065;-83
2021/04/23 00:27:04;;;;;;;19.75;6.50;;;5.80;99.90;;;;;;5067795;28;20049;-82
2021/04/23 00:29:32;;;;;;;16.00;4.57;;;5.80;99.90;;;;;;5051292;28;20049;-83
2021/04/23 00:31:59;;;;;;;15.55;6.03;;;7.20;99.90;;;;;;5048953;28;20057;-82
2021/04/23 00:34:27;;;;;;;17.67;6.97;;;5.70;99.90;;;;;;5052544;28;20060;-83
2021/04/23 00:36:54;;;;;;;15.60;6.20;;;5.80;99.90;;;;;;5032115;28;20045;-81
2021/04/23 00:39:21;;;;;;;14.52;5.75;;;5.60;99.90;;;;;;5049013;28;20056;-82
2021/04/23 00:41:49;;;;;;;27.83;7.50;;;5.60;99.90;;;;;;5050219;28;20052;-82
2021/04/23 00:44:16;;;;;;;14.50;5.40;;;5.60;99.90;;;;;;5033230;28;20068;-82
2021/04/23 00:46:44;;;;;;;13.00;6.30;;;6.00;99.90;;;;;;5032386;28;20049;-81
2021/04/23 00:49:12;;;;;;;15.15;7.65;;;5.50;99.90;;;;;;5049406;28;20049;-82
2021/04/23 00:51:48;;;;;;;19.90;5.57;;;5.60;99.90;;;;;;5032564;28;20061;-83
2021/04/23 00:54:16;;;;;;;26.50;8.85;;;6.40;99.90;;;;;;5026019;28;20052;-84
2021/04/23 00:56:43;;;;;;;21.25;6.93;;;5.40;99.90;;;;;;5049646;28;20057;-86
2021/04/23 00:59:12;;;;;;;19.25;6.55;;;5.40;99.90;;;;;;5043594;28;20049;-82
2021/04/23 01:01:51;;;;;;;24.48;8.57;;;5.30;99.90;;;;;;5048040;28;20069;-83
2021/04/23 01:04:20;;;;;;;16.40;6.28;;;5.30;99.90;;;;;;5044038;28;20054;-82
2021/04/23 01:06:48;;;;;;;20.13;6.05;;;5.20;99.90;;;;;;5052157;28;20049;-83
2021/04/23 01:09:18;;;;;;;18.48;7.45;;;5.20;99.90;;;;;;5052344;28;20053;-82
2021/04/23 01:11:46;;;;;;;18.05;8.80;;;6.50;99.90;;;;;;5050808;28;20052;-83
2021/04/23 01:14:14;;;;;;;12.25;5.63;;;6.10;99.90;;;;;;5052095;28;20635;-83
2021/04/23 01:16:42;;;;;;;36.80;8.82;;;5.30;99.90;;;;;;5030723;28;20064;-83
2021/04/23 01:19:14;;;;;;;13.40;5.38;;;5.40;99.90;;;;;;5025622;28;20049;-83
2021/04/23 01:21:43;;;;;;;17.70;7.22;;;5.20;99.90;;;;;;5030787;28;20504;-82
2021/04/23 01:24:11;;;;;;;17.38;7.00;;;5.10;99.90;;;;;;5026346;28;20061;-82
2021/04/23 01:26:44;;;;;;;15.90;6.65;;;5.10;99.90;;;;;;5029628;28;20049;-83
2021/04/23 01:29:13;;;;;;;22.30;6.90;;;5.10;99.90;;;;;;5043481;28;20060;-81
2021/04/23 01:31:44;;;;;;;21.63;9.57;;;5.00;99.90;;;;;;5030991;28;20504;-83
2021/04/23 01:34:20;;;;;;;20.27;7.25;;;5.60;99.90;;;;;;5023971;28;20049;-82
2021/04/23 01:36:48;;;;;;;26.55;7.55;;;5.00;99.90;;;;;;5024444;28;20053;-82
2021/04/23 01:39:20;;;;;;;34.08;7.40;;;5.00;99.90;;;;;;5013897;28;20497;-83
2021/04/23 01:41:48;;;;;;;15.43;6.38;;;5.00;99.90;;;;;;5013634;28;20041;-85
2021/04/23 01:44:15;;;;;;;22.88;7.57;;;5.00;99.90;;;;;;5001190;28;20501;-82
2021/04/23 01:46:43;;;;;;;19.05;6.68;;;4.80;99.90;;;;;;5032132;28;20049;-85
2021/04/23 01:49:14;;;;;;;20.58;8.05;;;4.70;99.90;;;;;;5033414;28;20061;-83
2021/04/23 01:51:45;;;;;;;21.95;6.35;;;4.60;99.90;;;;;;5016473;28;20052;-85
2021/04/23 01:54:14;;;;;;;24.52;8.38;;;4.40;99.90;;;;;;5026467;28;20049;-82
2021/04/23 01:56:43;;;;;;;24.50;7.05;;;5.50;99.90;;;;;;5035718;28;20049;-83
2021/04/23 01:59:12;;;;;;;13.68;5.43;;;6.70;99.90;;;;;;5020234;28;20061;-83
2021/04/23 02:01:40;;;;;;;19.23;7.72;;;4.10;99.90;;;;;;5031394;28;20060;-83
2021/04/23 02:04:09;;;;;;;21.80;7.10;;;4.10;99.90;;;;;;5033543;28;20060;-82
2021/04/23 02:06:38;;;;;;;25.60;7.32;;;3.90;99.90;;;;;;5035503;28;20049;-83
2021/04/23 02:09:07;;;;;;;13.45;6.80;;;4.00;99.90;;;;;;5035273;28;20068;-85
2021/04/23 02:11:35;;;;;;;23.42;7.40;;;3.90;99.90;;;;;;5032936;28;20058;-82
2021/04/23 02:14:04;;;;;;;14.05;7.78;;;5.20;99.90;;;;;;5031740;28;20049;-84
2021/04/23 02:16:31;;;;;;;19.95;8.45;;;3.70;99.90;;;;;;5040484;28;20057;-84
2021/04/23 02:18:59;;;;;;;20.45;7.82;;;3.60;99.90;;;;;;5051458;28;20064;-83
2021/04/23 02:21:27;;;;;;;16.63;6.88;;;3.50;99.90;;;;;;5050759;28;20068;-82
2021/04/23 02:23:55;;;;;;;23.88;7.72;;;3.50;99.90;;;;;;5064079;28;20558;-83
2021/04/23 02:26:23;;;;;;;31.33;10.38;;;4.50;99.90;;;;;;5063209;28;20052;-83
2021/04/23 02:28:52;;;;;;;18.75;9.32;;;3.40;99.90;;;;;;5066467;28;20041;-82
2021/04/23 02:31:24;;;;;;;19.63;7.90;;;3.40;99.90;;;;;;5052520;28;20061;-84
2021/04/23 02:33:55;;;;;;;18.92;6.90;;;3.40;99.90;;;;;;5052304;28;20057;-88
2021/04/23 02:36:23;;;;;;;16.65;6.63;;;4.00;99.90;;;;;;5050772;28;20052;-83
2021/04/23 02:38:59;;;;;;;17.08;6.65;;;3.40;99.90;;;;;;5032763;28;20136;-82
2021/04/23 02:41:26;;;;;;;21.73;11.52;;;3.80;99.90;;;;;;5035329;28;20041;-83
2021/04/23 02:43:56;;;;;;;20.83;8.15;;;3.40;99.90;;;;;;5048328;28;20068;-81
2021/04/23 02:46:26;;;;;;;18.17;7.32;;;4.40;99.90;;;;;;5052527;28;20483;-82
2021/04/23 02:48:54;;;;;;;19.50;9.18;;;4.10;99.90;;;;;;5052184;28;20053;-83
2021/04/23 02:51:28;;;;;;;18.30;6.38;;;3.30;99.90;;;;;;5055013;28;20045;-82
2021/04/23 02:53:57;;;;;;;21.10;8.13;;;3.40;99.90;;;;;;5058841;28;20057;-83
2021/04/23 02:56:27;;;;;;;14.93;7.68;;;3.30;99.90;;;;;;5050344;28;20389;-85
2021/04/23 02:58:54;;;;;;;22.25;8.60;;;3.80;99.90;;;;;;5049873;28;20059;-83
2021/04/23 03:01:26;;;;;;;21.05;8.27;;;3.10;99.90;;;;;;5043392;28;20045;-82
2021/04/23 03:03:54;;;;;;;18.23;7.55;;;3.10;99.90;;;;;;5044168;28;20060;-83
2021/04/23 03:06:22;;;;;;;15.52;7.82;;;3.10;99.90;;;;;;5032220;28;20079;-83
2021/04/23 03:08:49;;;;;;;26.83;9.20;;;3.10;99.90;;;;;;5033678;28;20056;-82
2021/04/23 03:11:20;;;;;;;20.38;8.55;;;3.10;99.90;;;;;;5041457;28;20060;-84
2021/04/23 03:13:51;;;;;;;16.63;7.85;;;3.10;99.90;;;;;;5047466;28;20051;-82
2021/04/23 03:16:19;;;;;;;19.27;8.77;;;3.00;99.90;;;;;;5034121;28;20052;-83
2021/04/23 03:18:48;;;;;;;19.77;8.55;;;2.90;99.90;;;;;;5033496;28;20780;-82
2021/04/23 03:21:20;;;;;;;15.90;6.72;;;3.80;99.90;;;;;;5051620;28;20060;-82
2021/04/23 03:23:48;;;;;;;21.45;8.52;;;3.00;99.90;;;;;;5056192;28;20060;-85
2021/04/23 03:26:17;;;;;;;21.35;8.73;;;2.80;99.90;;;;;;5057760;28;20509;-84
2021/04/23 03:28:44;;;;;;;17.88;7.97;;;2.80;99.90;;;;;;5054350;28;20053;-84
2021/04/23 03:31:13;;;;;;;29.30;8.15;;;2.90;99.90;;;;;;5066567;28;20404;-84
2021/04/23 03:33:41;;;;;;;25.33;9.15;;;3.00;99.90;;;;;;5024964;28;20508;-82
2021/04/23 03:36:11;;;;;;;28.52;10.35;;;3.10;99.90;;;;;;5032439;28;20048;-82
2021/04/23 03:38:40;;;;;;;23.63;7.60;;;3.10;99.90;;;;;;5028034;28;20045;-82
2021/04/23 03:41:13;;;;;;;28.30;10.50;;;3.10;99.90;;;;;;5047761;28;20703;-84
2021/04/23 03:43:41;;;;;;;24.33;9.48;;;3.20;99.90;;;;;;5051337;28;20061;-82
2021/04/23 03:46:10;;;;;;;25.65;9.07;;;3.20;99.90;;;;;;5050185;28;20448;-82
2021/04/23 03:48:38;;;;;;;23.35;8.82;;;3.20;99.90;;;;;;5049811;28;20051;-82
2021/04/23 03:51:07;;;;;;;18.80;9.52;;;3.20;99.90;;;;;;5052915;28;20049;-83
2021/04/23 03:53:35;;;;;;;24.85;9.00;;;3.50;99.90;;;;;;5040565;28;20052;-87
2021/04/23 03:56:05;;;;;;;22.80;9.82;;;3.30;99.90;;;;;;5051062;28;20063;-82
2021/04/23 03:58:33;;;;;;;23.15;10.30;;;3.20;99.90;;;;;;5029480;28;20054;-83
2021/04/23 04:01:09;;;;;;;25.15;10.10;;;3.20;99.90;;;;;;5034179;28;20049;-83
2021/04/23 04:03:37;;;;;;;20.60;8.93;;;4.50;99.90;;;;;;5053674;28;20060;-85
2021/04/23 04:06:06;;;;;;;23.98;9.38;;;3.50;99.90;;;;;;5051213;28;20064;-82
2021/04/23 04:08:34;;;;;;;19.92;9.27;;;3.20;99.90;;;;;;5031390;28;20057;-82
2021/04/23 04:11:04;;;;;;;24.10;9.95;;;3.30;99.90;;;;;;5041142;28;20084;-82
2021/04/23 04:13:32;;;;;;;21.27;10.40;;;3.30;99.90;;;;;;5050525;28;20053;-82
2021/04/23 04:16:00;;;;;;;32.30;11.00;;;3.30;99.90;;;;;;5045034;28;20066;-84
2021/04/23 04:18:29;;;;;;;21.05;10.30;;;3.80;99.90;;;;;;5052831;28;20045;-85
2021/04/23 04:20:57;;;;;;;29.98;9.18;;;3.30;99.90;;;;;;5049410;28;20049;-82
2021/04/23 04:23:24;;;;;;;22.80;9.98;;;3.30;99.90;;;;;;5049549;28;20056;-84
2021/04/23 04:25:56;;;;;;;34.63;9.27;;;3.30;99.90;;;;;;5049588;28;20083;-82
2021/04/23 04:28:26;;;;;;;30.75;9.98;;;3.70;99.90;;;;;;5056986;28;20053;-83
2021/04/23 04:30:54;;;;;;;26.13;10.68;;;3.30;99.90;;;;;;5011891;28;20488;-82
2021/04/23 04:33:41;;;;;;;23.52;9.63;;;3.30;99.90;;;;;;5026655;28;20068;-82
2021/04/23 04:36:08;;;;;;;25.92;10.68;;;3.20;99.90;;;;;;5060574;28;20048;-82
2021/04/23 04:38:36;;;;;;;20.45;10.60;;;3.20;99.90;;;;;;5048073;28;20053;-82
2021/04/23 04:41:03;;;;;;;24.92;8.05;;;3.40;99.90;;;;;;5048630;28;20448;-82
2021/04/23 04:43:31;;;;;;;25.65;9.88;;;3.30;99.90;;;;;;5053318;28;20045;-82
2021/04/23 04:45:58;;;;;;;35.33;8.63;;;3.20;99.90;;;;;;5052401;28;20063;-82
2021/04/23 04:48:25;;;;;;;22.58;8.30;;;4.20;99.90;;;;;;5051890;28;20045;-82
2021/04/23 04:50:58;;;;;;;20.15;9.07;;;3.10;99.90;;;;;;5051724;28;20408;-83
2021/04/23 04:53:26;;;;;;;22.60;8.75;;;3.50;99.90;;;;;;5055818;28;20048;-82
2021/04/23 04:55:56;;;;;;;24.38;8.95;;;3.00;99.90;;;;;;5034746;28;20053;-82
2021/04/23 04:58:30;;;;;;;24.83;10.03;;;2.70;99.90;;;;;;5046959;28;20064;-82
2021/04/23 05:00:58;;;;;;;35.45;10.50;;;2.80;99.90;;;;;;5048032;28;20071;-83
2021/04/23 05:03:26;;;;;;;25.83;9.25;;;2.80;99.90;;;;;;5044588;28;20053;-81
2021/04/23 05:05:53;;;;;;;27.38;11.25;;;2.80;99.90;;;;;;5045054;28;20048;-82
2021/04/23 05:08:20;;;;;;;26.00;10.40;;;2.80;99.90;;;;;;5052075;28;20536;-81
2021/04/23 05:10:48;;;;;;;22.73;7.10;;;2.90;99.90;;;;;;5033843;28;20049;-83
2021/04/23 05:13:15;;;;;;;28.13;10.98;;;2.80;99.90;;;;;;5033651;28;20397;-83
2021/04/23 05:15:43;;;;;;;28.42;10.73;;;2.80;99.90;;;;;;5051826;28;20057;-83
2021/04/23 05:18:11;;;;;;;21.92;7.85;;;3.30;99.90;;;;;;5052044;28;20055;-83
2021/04/23 05:20:38;;;;;;;20.90;9.30;;;2.80;99.90;;;;;;5050700;28;20045;-84
2021/04/23 05:23:08;;;;;;;24.13;9.75;;;2.90;99.90;;;;;;5054620;28;20049;-82
2021/04/23 05:25:35;;;;;;;40.85;9.82;;;2.90;99.90;;;;;;5049930;28;20041;-82
2021/04/23 05:28:04;;;;;;;47.28;11.63;;;4.30;99.90;;;;;;5017848;28;20045;-82
2021/04/23 05:30:34;;;;;;;23.38;8.93;;;2.90;99.90;;;;;;5052110;28;20063;-82
2021/04/23 05:33:02;;;;;;;26.17;9.40;;;2.90;99.90;;;;;;5032455;28;20057;-82
2021/04/23 05:35:31;;;;;;;27.27;9.20;;;2.90;99.90;;;;;;5048980;28;20061;-84
2021/04/23 05:37:59;;;;;;;26.13;8.75;;;2.90;99.90;;;;;;5050879;28;20048;-82
2021/04/23 05:40:39;;;;;;;20.95;7.53;;;2.90;99.90;;;;;;5054208;28;20063;-82
2021/04/23 05:43:07;;;;;;;23.58;9.93;;;2.90;99.90;;;;;;5050024;28;20056;-83
2021/04/23 05:45:36;;;;;;;17.88;10.05;;;3.90;99.90;;;;;;5035892;28;20055;-83
2021/04/23 05:48:04;;;;;;;19.58;10.93;;;3.00;99.90;;;;;;5055939;28;20041;-83
2021/04/23 05:50:31;;;;;;;30.65;11.70;;;3.10;99.90;;;;;;5025531;28;20053;-82
2021/04/23 05:52:58;;;;;;;17.98;9.13;;;3.20;99.90;;;;;;5058028;28;20061;-83
2021/04/23 05:55:26;;;;;;;19.83;8.68;;;3.30;99.90;;;;;;5033362;28;20056;-84
2021/04/23 05:57:55;;;;;;;28.95;9.95;;;3.40;99.90;;;;;;5049734;28;20059;-82
2021/04/23 06:00:25;;;;;;;24.23;10.45;;;3.50;99.90;;;;;;5042177;28;20053;-85
2021/04/23 06:02:54;;;;;;;27.35;11.95;;;3.50;99.90;;;;;;5051482;28;20407;-81
2021/04/23 06:05:27;;;;;;;26.10;11.45;;;4.30;99.90;;;;;;5035216;28;20051;-83
2021/04/23 06:07:58;;;;;;;28.00;11.57;;;3.90;99.90;;;;;;5031940;28;20480;-84
2021/04/23 06:10:27;;;;;;;20.55;11.07;;;3.80;99.90;;;;;;5045652;28;20060;-85
2021/04/23 06:12:55;;;;;;;28.58;11.38;;;3.90;99.90;;;;;;5044363;28;20412;-84
2021/04/23 06:15:23;;;;;;;34.75;14.70;;;4.00;99.90;;;;;;5049238;28;20055;-83
2021/04/23 06:17:53;;;;;;;36.83;12.88;;;4.10;99.90;;;;;;5029308;28;20484;-83
2021/04/23 06:20:24;;;;;;;24.77;12.07;;;4.20;99.90;;;;;;5048571;28;20052;-84
2021/04/23 06:22:51;;;;;;;28.45;11.65;;;4.30;99.90;;;;;;5039763;28;20045;-83
2021/04/23 06:25:20;;;;;;;18.92;9.93;;;5.20;99.90;;;;;;5048353;28;20053;-82
2021/04/23 06:27:49;;;;;;;32.50;11.35;;;4.40;99.90;;;;;;5046014;28;20052;-83
2021/04/23 06:30:20;;;;;;;27.85;11.23;;;4.60;99.90;;;;;;5022684;28;20049;-82
2021/04/23 06:32:48;;;;;;;26.40;11.05;;;4.60;99.90;;;;;;5014385;28;20044;-83
2021/04/23 06:35:18;;;;;;;26.30;12.27;;;4.70;99.90;;;;;;5029478;28;20048;-83
2021/04/23 06:37:47;;;;;;;33.25;10.75;;;4.80;99.90;;;;;;5029073;28;20036;-83
2021/04/23 06:40:15;;;;;;;30.52;12.02;;;4.90;99.90;;;;;;5043669;28;20049;-84
2021/04/23 06:42:43;;;;;;;41.33;12.82;;;5.00;99.90;;;;;;5040284;28;20049;-83
2021/04/23 06:45:15;;;;;;;29.70;13.95;;;5.10;99.90;;;;;;5046366;28;20036;-81
2021/04/23 06:47:43;;;;;;;38.25;12.10;;;5.20;99.90;;;;;;5041282;28;20079;-84
2021/04/23 06:50:16;;;;;;;24.80;9.90;;;5.30;99.90;;;;;;5020763;28;20052;-85
2021/04/23 06:52:44;;;;;;;25.95;12.73;;;5.50;99.90;;;;;;5061624;28;20048;-85
2021/04/23 06:55:14;;;;;;;33.10;10.65;;;6.50;99.90;;;;;;5038268;28;20590;-85
2021/04/23 06:57:41;;;;;;;23.20;11.25;;;5.70;99.90;;;;;;5042596;22;20065;-87
2021/04/23 07:00:23;;;;;;;33.80;12.43;;;7.30;99.90;;;;;;5024026;28;20065;-87
2021/04/23 07:02:50;;;;;;;25.88;10.55;;;6.00;99.90;;;;;;5055988;28;20053;-88
2021/04/23 07:05:18;;;;;;;27.67;11.55;;;7.20;99.90;;;;;;5039300;28;20104;-87
2021/04/23 07:07:46;;;;;;;34.15;13.82;;;6.30;99.90;;;;;;5043557;28;20050;-86
2021/04/23 07:10:17;;;;;;;33.08;12.75;;;6.40;99.90;;;;;;5043138;28;20047;-88
2021/04/23 07:12:45;;;;;;;26.10;12.30;;;6.70;99.90;;;;;;5035027;28;20065;-85
2021/04/23 07:15:16;;;;;;;30.30;13.93;;;7.70;99.90;;;;;;5039740;28;20053;-86
2021/04/23 07:17:43;;;;;;;29.05;13.40;;;6.70;99.90;;;;;;5030427;28;20067;-87
2021/04/23 07:20:31;;;;;;;32.08;12.13;;;6.90;99.90;;;;;;5041416;28;20310;-88
2021/04/23 07:22:59;;;;;;;32.00;11.25;;;7.00;99.90;;;;;;5039930;28;20046;-87
2021/04/23 07:25:27;;;;;;;28.98;11.60;;;8.40;99.90;;;;;;5039887;28;20057;-87
2021/04/23 07:27:57;;;;;;;28.13;10.63;;;7.40;99.90;;;;;;5040650;28;20694;-86
2021/04/23 07:30:32;;;;;;;29.10;10.85;;;7.30;99.90;;;;;;5037644;28;20069;-86
2021/04/23 07:33:00;;;;;;;33.25;12.82;;;7.40;99.90;;;;;;5014965;28;20076;-87
2021/04/23 07:35:28;;;;;;;23.67;10.57;;;7.60;99.90;;;;;;5011847;28;20129;-86
2021/04/23 07:37:56;;;;;;;30.40;10.98;;;7.70;99.90;;;;;;5039108;28;20517;-86
2021/04/23 07:40:24;;;;;;;33.00;13.15;;;7.80;99.90;;;;;;4986305;28;20049;-87
2021/04/23 07:42:52;;;;;;;29.23;9.85;;;7.90;99.90;;;;;;5026885;28;20068;-86
2021/04/23 07:45:20;;;;;;;27.02;9.95;;;8.00;99.90;;;;;;5012478;28;20388;-87
2021/04/23 07:47:50;;;;;;;19.27;8.60;;;8.10;99.90;;;;;;5053274;28;20044;-88
2021/04/23 07:50:20;;;;;;;25.02;8.85;;;9.00;99.90;;;;;;5031274;28;20040;-87
2021/04/23 07:52:52;;;;;;;26.10;10.13;;;8.30;99.90;;;;;;5026155;28;20077;-86
2021/04/23 07:55:22;;;;;;;26.08;8.82;;;8.40;99.90;;;;;;5025662;28;20516;-86
2021/04/23 07:57:50;;;;;;;22.45;8.48;;;8.50;99.90;;;;;;5016203;28;20049;-88
2021/04/23 08:00:20;;;;;;;19.80;8.07;;;8.60;99.90;;;;;;5002424;28;20605;-88
2021/04/23 08:02:55;;;;;;;22.63;8.10;;;8.70;99.90;;;;;;5005991;28;20070;-87
2021/04/23 08:05:25;;;;;;;19.77;8.13;;;8.90;99.90;;;;;;4999924;28;20052;-87
2021/04/23 08:08:05;;;;;;;23.10;10.20;;;9.00;99.90;;;;;;4991558;28;20418;-86
2021/04/23 08:10:34;;;;;;;23.58;7.75;;;9.10;99.90;;;;;;5023295;28;20038;-88
2021/04/23 08:13:03;;;;;;;21.05;6.65;;;9.20;99.90;;;;;;5006741;28;20053;-89
2021/04/23 08:15:30;;;;;;;13.90;6.30;;;9.30;99.90;;;;;;5007156;28;20050;-88
2021/04/23 08:17:59;;;;;;;11.88;5.50;;;9.40;99.90;;;;;;5002723;28;20518;-87
2021/04/23 08:20:27;;;;;;;14.57;5.70;;;9.50;99.90;;;;;;5020623;28;20050;-88
2021/04/23 08:22:55;;;;;;;12.20;5.45;;;10.10;99.90;;;;;;5007482;28;20104;-87
2021/04/23 08:25:23;;;;;;;10.05;4.43;;;9.70;99.90;;;;;;4991592;28;20073;-86
2021/04/23 08:27:53;;;;;;;21.20;8.95;;;9.80;99.90;;;;;;5008672;28;20053;-88
2021/04/23 08:30:26;;;;;;;25.13;7.78;;;9.90;99.90;;;;;;5007671;28;20067;-87
2021/04/23 08:32:55;;;;;;;11.77;5.15;;;10.00;99.90;;;;;;4969957;28;20050;-89
2021/04/23 08:35:24;;;;;;;11.73;4.47;;;10.10;99.90;;;;;;5005703;28;20041;-90
2021/04/23 08:37:52;;;;;;;17.83;5.43;;;10.20;99.90;;;;;;4992298;28;20067;-91
2021/04/23 08:40:22;;;;;;;12.27;5.20;;;10.40;99.90;;;;;;5013891;28;20054;-89
2021/04/23 08:42:51;;;;;;;14.32;5.18;;;10.40;99.90;;;;;;5002874;28;20050;-90
2021/04/23 08:45:20;;;;;;;15.60;5.68;;;10.50;99.90;;;;;;5005926;28;20713;-87
2021/04/23 08:47:49;;;;;;;15.48;4.75;;;10.60;99.90;;;;;;4989959;28;20511;-86
2021/04/23 08:50:20;;;;;;;13.27;5.05;;;10.70;99.90;;;;;;5005171;28;20066;-87
2021/04/23 08:52:49;;;;;;;15.95;6.07;;;10.80;99.90;;;;;;5007249;28;20046;-89
2021/04/23 08:55:21;;;;;;;11.70;4.65;;;10.80;99.90;;;;;;5007054;28;20531;-88
2021/04/23 08:58:13;;;;;;;13.65;4.40;;;10.90;99.90;;;;;;5013889;28;20509;-88
2021/04/23 09:00:42;;;;;;;17.70;5.32;;;11.00;99.90;;;;;;5007534;28;20054;-89
2021/04/23 09:03:11;;;;;;;13.30;4.45;;;11.00;99.90;;;;;;4992969;28;20052;-88
2021/04/23 09:05:40;;;;;;;11.90;4.53;;;11.10;99.90;;;;;;4987299;28;20056;-87
2021/04/23 09:08:13;;;;;;;14.68;6.18;;;11.20;99.90;;;;;;4985447;28;20058;-89
2021/04/23 09:10:44;;;;;;;7.95;3.92;;;11.20;99.90;;;;;;4978335;28;20057;-87
2021/04/23 09:13:16;;;;;;;17.00;4.43;;;11.20;99.90;;;;;;4995856;28;20046;-89
2021/04/23 09:15:45;;;;;;;27.67;4.55;;;11.30;99.90;;;;;;5016865;28;20544;-88
2021/04/23 09:18:21;;;;;;;17.40;4.18;;;11.50;99.90;;;;;;4991839;28;20038;-87
2021/04/23 09:21:01;;;;;;;14.13;5.22;;;11.50;99.90;;;;;;5023406;28;20053;-89
2021/04/23 09:23:28;;;;;;;11.98;5.03;;;11.60;99.90;;;;;;4993571;28;20046;-90
2021/04/23 09:25:59;;;;;;;10.60;4.72;;;11.60;99.90;;;;;;4996122;28;20046;-88
2021/04/23 09:28:36;;;;;;;13.02;4.32;;;11.70;99.90;;;;;;4991545;28;20045;-89
2021/04/23 09:31:39;;;;;;;12.45;5.22;;;11.70;99.90;;;;;;5026197;28;20062;-90
2021/04/23 09:34:08;;;;;;;11.25;4.90;;;11.80;99.90;;;;;;4969228;28;20058;-90
2021/04/23 09:36:39;;;;;;;9.23;4.47;;;11.90;99.90;;;;;;5005060;28;20429;-88
2021/04/23 09:39:22;;;;;;;14.75;4.43;;;12.10;99.90;;;;;;5027482;28;20053;-88
2021/04/23 09:42:04;;;;;;;13.30;4.47;;;12.10;99.50;;;;;;5038247;28;20068;-88
2021/04/23 09:44:34;;;;;;;11.57;4.85;;;12.20;99.80;;;;;;5018276;28;20061;-91
2021/04/23 09:47:21;;;;;;;14.35;5.05;;;12.40;98.90;;;;;;4996917;28;20045;-90
2021/04/23 09:49:56;;;;;;;11.15;4.57;;;12.50;98.10;;;;;;4990943;28;20061;-89
2021/04/23 09:52:26;;;;;;;10.05;4.90;;;12.50;98.00;;;;;;4995634;28;20034;-88
2021/04/23 09:54:58;;;;;;;12.10;4.82;;;13.20;98.60;;;;;;5009704;28;20069;-87
2021/04/23 09:57:31;;;;;;;16.60;5.05;;;12.60;97.30;;;;;;4993024;28;20057;-88
2021/04/23 10:00:02;;;;;;;9.38;4.32;;;12.80;97.50;;;;;;5024879;28;20046;-87
2021/04/23 10:02:32;;;;;;;21.23;5.45;;;12.80;97.30;;;;;;5010480;28;20413;-88
2021/04/23 10:05:00;;;;;;;17.38;4.28;;;12.90;96.50;;;;;;5008041;28;20049;-87
2021/04/23 10:07:31;;;;;;;13.23;4.85;;;13.10;95.30;;;;;;5009617;28;20497;-88
2021/04/23 10:10:06;;;;;;;18.37;5.30;;;13.10;94.80;;;;;;4993381;28;20046;-86
2021/04/23 10:12:45;;;;;;;13.88;4.47;;;13.20;95.10;;;;;;5008926;28;20053;-87
2021/04/23 10:15:33;;;;;;;8.35;4.70;;;13.30;94.60;;;;;;5011844;28;20046;-89
2021/04/23 10:18:10;;;;;;;10.82;5.63;;;13.40;94.00;;;;;;5007963;28;20737;-91
2021/04/23 10:20:41;;;;;;;12.80;4.40;;;13.50;93.20;;;;;;5008022;28;20259;-88
2021/04/23 10:23:10;;;;;;;11.55;5.60;;;13.50;92.80;;;;;;5020461;28;20046;-93
2021/04/23 10:25:38;;;;;;;12.40;5.28;;;13.60;91.30;;;;;;5024528;28;20050;-87
2021/04/23 10:28:09;;;;;;;12.68;5.90;;;13.70;92.00;;;;;;5022646;28;20058;-86
2021/04/23 10:30:44;;;;;;;16.17;5.93;;;13.80;92.30;;;;;;5026750;28;20054;-88
2021/04/23 10:33:14;;;;;;;14.77;5.28;;;13.80;92.40;;;;;;5005748;28;20041;-87
2021/04/23 10:35:44;;;;;;;10.55;5.43;;;14.00;90.70;;;;;;5023403;28;20046;-89
2021/04/23 10:38:18;;;;;;;10.73;4.65;;;14.00;90.80;;;;;;5019597;28;20551;-90
2021/04/23 10:41:04;;;;;;;15.35;5.80;;;14.20;90.00;;;;;;5016813;28;20050;-87
2021/04/23 10:43:34;;;;;;;14.25;4.90;;;14.30;89.80;;;;;;5028171;28;20054;-88
2021/04/23 10:46:09;;;;;;;14.65;5.05;;;14.40;90.00;;;;;;5006776;28;20054;-92
2021/04/23 10:48:42;;;;;;;17.13;5.25;;;14.50;88.20;;;;;;5008055;28;20052;-91
2021/04/23 10:51:23;;;;;;;17.65;6.45;;;14.60;89.50;;;;;;5019063;28;20053;-89
2021/04/23 10:54:04;;;;;;;20.38;5.50;;;14.70;90.20;;;;;;5028229;28;20045;-87
2021/04/23 10:56:33;;;;;;;16.05;5.85;;;14.80;90.40;;;;;;5019689;28;20050;-91
2021/04/23 10:59:05;;;;;;;22.10;5.63;;;14.90;90.00;;;;;;5002755;28;20046;-88
2021/04/23 11:01:36;;;;;;;10.85;4.40;;;14.90;86.70;;;;;;5019741;28;20045;-86
2021/04/23 11:04:19;;;;;;;13.88;4.93;;;15.00;85.90;;;;;;5000819;28;20458;-88
2021/04/23 11:07:00;;;;;;;17.90;5.07;;;15.00;86.40;;;;;;4987095;28;20058;-89
2021/04/23 11:09:28;;;;;;;14.48;6.18;;;15.20;85.30;;;;;;5042180;28;20034;-90
2021/04/23 11:12:08;;;;;;;19.85;5.78;;;15.30;86.70;;;;;;5009675;28;20057;-89
2021/04/23 11:14:44;;;;;;;17.85;6.18;;;15.30;84.50;;;;;;5020821;28;20058;-88
2021/04/23 11:17:17;;;;;;;25.60;6.50;;;15.40;84.80;;;;;;5000573;28;20082;-90
2021/04/23 11:19:48;;;;;;;21.23;6.22;;;15.50;82.30;;;;;;5008493;28;20501;-91
2021/04/23 11:22:24;;;;;;;11.20;5.25;;;15.50;82.70;;;;;;5013538;28;20057;-90
2021/04/23 11:25:21;;;;;;;17.75;6.32;;;15.60;82.40;;;;;;4994862;28;20056;-88
2021/04/23 11:28:01;;;;;;;17.63;6.60;;;15.70;83.40;;;;;;4996150;28;20413;-87
2021/04/23 11:30:54;;;;;;;22.65;6.30;;;15.80;83.40;;;;;;5006672;28;20069;-87
2021/04/23 11:33:46;;;;;;;15.75;5.80;;;15.90;77.80;;;;;;5009397;28;20058;-88
2021/04/23 11:36:26;;;;;;;16.05;7.38;;;16.00;79.40;;;;;;4996185;28;20046;-89
2021/04/23 11:38:56;;;;;;;29.05;7.07;;;16.10;82.50;;;;;;5002046;28;20046;-91
2021/04/23 11:41:35;;;;;;;18.30;8.07;;;16.10;83.00;;;;;;5007514;28;20058;-89
2021/04/23 11:44:23;;;;;;;22.75;7.25;;;16.10;80.60;;;;;;5010358;28;20038;-89
2021/04/23 11:46:54;;;;;;;19.70;6.90;;;16.10;80.20;;;;;;5010107;28;20045;-87
2021/04/23 11:49:21;;;;;;;18.75;7.18;;;16.10;82.60;;;;;;4997653;28;20041;-90
2021/04/23 11:51:53;;;;;;;21.20;6.63;;;16.10;84.00;;;;;;5026086;28;20050;-85
2021/04/23 11:54:40;;;;;;;19.38;7.70;;;16.10;83.20;;;;;;5028651;28;20077;-87
2021/04/23 11:57:13;;;;;;;20.60;6.28;;;16.10;83.50;;;;;;4991754;28;20057;-88
2021/04/23 12:00:03;;;;;;;21.50;7.35;;;16.10;82.90;;;;;;5013492;28;20046;-89
2021/04/23 12:02:50;;;;;;;27.27;7.60;;;16.20;82.40;;;;;;5020006;28;20505;-89
2021/04/23 12:05:35;;;;;;;25.35;7.35;;;16.30;83.00;;;;;;5008935;28;20041;-89
2021/04/23 12:08:11;;;;;;;17.63;6.90;;;16.30;81.20;;;;;;5011112;28;20057;-91
2021/04/23 12:10:43;;;;;;;16.45;6.70;;;16.40;76.90;;;;;;4998093;28;20053;-91
2021/04/23 12:13:16;;;;;;;20.48;8.20;;;16.50;77.00;;;;;;5006966;28;20054;-89
2021/04/23 12:15:46;;;;;;;26.75;7.45;;;16.70;79.00;;;;;;5012339;28;20046;-88
2021/04/23 12:18:15;;;;;;;16.30;7.30;;;16.80;78.40;;;;;;4992847;28;20081;-89
2021/04/23 12:20:49;;;;;;;13.43;5.95;;;16.80;77.40;;;;;;5008734;28;20519;-90
2021/04/23 12:23:21;;;;;;;16.75;6.28;;;16.90;75.90;;;;;;5021481;28;20410;-88
2021/04/23 12:25:59;;;;;;;17.35;6.88;;;17.10;75.10;;;;;;5008209;28;20057;-88
2021/04/23 12:28:34;;;;;;;19.63;7.30;;;17.10;73.80;;;;;;4995977;28;20054;-89
2021/04/23 12:31:06;;;;;;;23.48;8.48;;;17.10;75.90;;;;;;5012967;28;20050;-88
2021/04/23 12:33:48;;;;;;;15.90;7.63;;;17.10;77.10;;;;;;5006589;28;20065;-89
2021/04/23 12:36:24;;;;;;;24.63;7.38;;;17.20;77.10;;;;;;5013243;28;20053;-90
2021/04/23 12:39:13;;;;;;;29.30;9.35;;;17.10;76.90;;;;;;4997962;28;20057;-89
2021/04/23 12:41:59;;;;;;;19.05;9.00;;;17.00;77.30;;;;;;5024494;28;20049;-87
2021/04/23 12:44:36;;;;;;;25.42;7.43;;;17.00;76.80;;;;;;4994656;28;20060;-90
2021/04/23 12:47:11;;;;;;;24.92;8.40;;;17.00;77.60;;;;;;5003951;28;20061;-89
2021/04/23 12:49:41;;;;;;;18.35;7.43;;;17.10;78.30;;;;;;5007627;28;20053;-89
2021/04/23 12:52:23;;;;;;;22.63;8.23;;;17.10;78.30;;;;;;5003916;28;20053;-89
2021/04/23 12:54:53;;;;;;;18.33;6.63;;;17.20;78.50;;;;;;5004512;28;20045;-89
2021/04/23 12:57:25;;;;;;;26.23;8.18;;;17.10;78.50;;;;;;5001715;23;20054;-89
2021/04/23 13:00:07;;;;;;;19.20;7.97;;;17.00;79.10;;;;;;5017509;28;20076;-90
2021/04/23 13:02:36;;;;;;;;;;;17.00;78.80;;;;;;5027141;28;20064;-89